createdAt,value
2023-01-12T00:01:33.718Z,8.80
2023-01-12T00:04:00.427Z,8.80
2023-01-12T00:06:27.090Z,8.80
2023-01-12T00:08:53.765Z,8.70
2023-01-12T00:11:21.256Z,8.70
2023-01-12T00:13:48.218Z,8.80
2023-01-12T00:16:40.782Z,8.70
2023-01-12T00:19:15.772Z,8.70
2023-01-12T00:21:56.198Z,8.70
2023-01-12T00:24:28.221Z,8.70
2023-01-12T00:26:56.402Z,8.80
2023-01-12T00:29:23.906Z,8.80
2023-01-12T00:31:52.274Z,8.80
2023-01-12T00:34:19.009Z,8.80
2023-01-12T00:36:46.872Z,8.80
2023-01-12T00:39:14.553Z,8.80
2023-01-12T00:42:00.566Z,8.80
2023-01-12T00:44:46.221Z,8.90
2023-01-12T00:47:14.849Z,8.90
2023-01-12T00:49:42.301Z,8.80
2023-01-12T00:52:18.270Z,8.90
2023-01-12T00:54:51.839Z,8.90
2023-01-12T00:57:19.300Z,8.90
2023-01-12T00:59:46.410Z,8.80
2023-01-12T01:02:13.394Z,8.80
2023-01-12T01:04:40.172Z,8.80
2023-01-12T01:07:07.019Z,8.90
2023-01-12T01:09:33.617Z,8.90
2023-01-12T01:12:00.301Z,8.90
2023-01-12T01:14:27.357Z,8.90
2023-01-12T01:16:54.028Z,8.90
2023-01-12T01:19:23.068Z,8.90
2023-01-12T01:21:49.970Z,9.00
2023-01-12T01:24:16.591Z,9.00
2023-01-12T01:26:43.215Z,9.00
2023-01-12T01:29:10.650Z,9.00
2023-01-12T01:31:37.329Z,9.00
2023-01-12T01:34:04.028Z,9.00
2023-01-12T01:36:30.788Z,9.00
2023-01-12T01:38:57.645Z,9.00
2023-01-12T01:41:32.544Z,9.00
2023-01-12T01:44:03.496Z,9.10
2023-01-12T01:46:43.835Z,9.10
2023-01-12T01:49:31.952Z,9.10
2023-01-12T01:52:12.087Z,9.20
2023-01-12T01:55:00.529Z,9.20
2023-01-12T01:57:33.661Z,9.20
2023-01-12T02:00:03.185Z,9.20
2023-01-12T02:02:32.512Z,9.20
2023-01-12T02:05:00.854Z,9.20
2023-01-12T02:07:27.476Z,9.30
2023-01-12T02:09:54.218Z,9.20
2023-01-12T02:12:39.282Z,9.20
2023-01-12T02:15:25.235Z,9.20
2023-01-12T02:18:10.665Z,9.20
2023-01-12T02:20:52.081Z,9.20
2023-01-12T02:23:56.023Z,9.20
2023-01-12T02:26:50.588Z,9.20
2023-01-12T02:29:22.904Z,9.20
2023-01-12T02:32:10.790Z,9.30
2023-01-12T02:34:47.876Z,9.30
2023-01-12T02:37:32.570Z,9.20
2023-01-12T02:40:05.220Z,9.30
2023-01-12T02:42:44.682Z,9.30
2023-01-12T02:45:27.357Z,9.30
2023-01-12T02:48:27.675Z,9.30
2023-01-12T02:51:03.104Z,9.30
2023-01-12T02:53:52.378Z,9.40
2023-01-12T02:56:27.608Z,9.30
2023-01-12T02:58:58.656Z,9.30
2023-01-12T03:01:27.133Z,9.30
2023-01-12T03:04:00.829Z,9.30
2023-01-12T03:06:57.559Z,9.30
2023-01-12T03:09:36.762Z,9.30
2023-01-12T03:12:08.534Z,9.30
2023-01-12T03:14:38.728Z,9.30
2023-01-12T03:17:10.564Z,9.20
2023-01-12T03:19:38.786Z,9.30
2023-01-12T03:22:08.590Z,9.20
2023-01-12T03:24:49.826Z,9.20
2023-01-12T03:27:24.697Z,9.20
2023-01-12T03:30:23.153Z,9.10
2023-01-12T03:32:50.781Z,9.10
2023-01-12T03:35:20.062Z,9.10
2023-01-12T03:37:56.509Z,9.00
2023-01-12T03:40:33.497Z,8.90
2023-01-12T03:43:17.746Z,8.80
2023-01-12T03:45:52.754Z,8.90
2023-01-12T03:48:27.428Z,8.90
2023-01-12T03:50:59.626Z,8.90
2023-01-12T03:53:27.841Z,8.90
2023-01-12T03:55:59.652Z,8.90
2023-01-12T03:58:26.695Z,8.80
2023-01-12T04:00:53.446Z,8.90
2023-01-12T04:03:20.282Z,8.90
2023-01-12T04:05:46.960Z,8.90
2023-01-12T04:08:15.284Z,8.80
2023-01-12T04:10:42.196Z,8.80
2023-01-12T04:13:09.112Z,8.80
2023-01-12T04:15:42.271Z,8.70
2023-01-12T04:18:09.814Z,8.70
2023-01-12T04:20:36.647Z,8.70
2023-01-12T04:23:03.360Z,8.80
2023-01-12T04:25:30.168Z,8.80
2023-01-12T04:28:01.005Z,8.90
2023-01-12T04:30:28.929Z,8.90
2023-01-12T04:32:56.275Z,8.80
2023-01-12T04:35:27.554Z,8.80
2023-01-12T04:37:54.292Z,8.80
2023-01-12T04:40:21.123Z,8.80
2023-01-12T04:43:01.721Z,8.80
2023-01-12T04:45:30.772Z,8.80
2023-01-12T04:48:02.706Z,8.80
2023-01-12T04:50:29.534Z,8.80
2023-01-12T04:52:56.638Z,8.80
2023-01-12T04:55:23.296Z,8.80
2023-01-12T04:57:50.293Z,8.80
2023-01-12T05:00:17.350Z,8.80
2023-01-12T05:02:44.090Z,8.80
2023-01-12T05:05:10.696Z,8.80
2023-01-12T05:07:37.467Z,8.80
2023-01-12T05:10:22.940Z,8.80
2023-01-12T05:12:49.562Z,8.70
2023-01-12T05:15:16.240Z,8.70
2023-01-12T05:17:42.834Z,8.70
2023-01-12T05:20:10.076Z,8.70
2023-01-12T05:22:36.687Z,8.70
2023-01-12T05:25:03.451Z,8.70
2023-01-12T05:27:30.133Z,8.60
2023-01-12T05:29:57.106Z,8.60
2023-01-12T05:32:23.794Z,8.60
2023-01-12T05:34:50.385Z,8.60
2023-01-12T05:37:16.996Z,8.60
2023-01-12T05:39:43.650Z,8.60
2023-01-12T05:42:28.996Z,8.60
2023-01-12T05:44:55.601Z,8.60
2023-01-12T05:47:22.234Z,8.60
2023-01-12T05:49:48.909Z,8.60
2023-01-12T05:52:15.508Z,8.60
2023-01-12T05:54:42.100Z,8.50
2023-01-12T05:57:08.702Z,8.50
2023-01-12T05:59:35.338Z,8.50
2023-01-12T06:02:02.058Z,8.50
2023-01-12T06:04:28.747Z,8.50
2023-01-12T06:06:55.363Z,8.40
2023-01-12T06:09:21.970Z,8.50
2023-01-12T06:12:07.335Z,8.50
2023-01-12T06:14:33.954Z,8.40
2023-01-12T06:17:00.817Z,8.40
2023-01-12T06:19:27.411Z,8.50
2023-01-12T06:21:55.129Z,8.50
2023-01-12T06:24:21.847Z,8.50
2023-01-12T06:26:48.539Z,8.50
2023-01-12T06:29:15.269Z,8.40
2023-01-12T06:31:44.068Z,8.50
2023-01-12T06:34:11.962Z,8.40
2023-01-12T06:36:39.305Z,8.30
2023-01-12T06:39:06.157Z,8.30
2023-01-12T06:41:53.264Z,8.40
2023-01-12T06:44:19.874Z,8.30
2023-01-12T06:46:46.475Z,8.30
2023-01-12T06:49:13.136Z,8.30
2023-01-12T06:51:39.748Z,8.40
2023-01-12T06:54:06.377Z,8.40
2023-01-12T06:56:33.010Z,8.50
2023-01-12T06:58:59.903Z,8.50
2023-01-12T07:01:27.245Z,8.40
2023-01-12T07:03:54.190Z,8.30
2023-01-12T07:06:20.954Z,8.30
2023-01-12T07:08:47.583Z,8.40
2023-01-12T07:11:15.063Z,8.40
2023-01-12T07:13:41.836Z,8.40
2023-01-12T07:16:09.391Z,8.30
2023-01-12T07:18:36.143Z,8.40
2023-01-12T07:21:07.468Z,8.30
2023-01-12T07:23:34.808Z,8.30
2023-01-12T07:26:01.723Z,8.30
2023-01-12T07:28:28.416Z,8.30
2023-01-12T07:31:00.438Z,8.20
2023-01-12T07:33:27.094Z,8.30
2023-01-12T07:35:56.888Z,8.20
2023-01-12T07:38:23.650Z,8.30
2023-01-12T07:40:50.288Z,8.30
2023-01-12T07:43:18.967Z,8.30
2023-01-12T07:45:46.289Z,8.40
2023-01-12T07:48:12.955Z,8.40
2023-01-12T07:50:39.613Z,8.50
2023-01-12T07:53:06.214Z,8.50
2023-01-12T07:55:32.911Z,8.50
2023-01-12T07:58:03.106Z,8.50
2023-01-12T08:00:30.792Z,8.50
2023-01-12T08:03:07.843Z,8.50
2023-01-12T08:05:35.494Z,8.40
2023-01-12T08:08:03.618Z,8.50
2023-01-12T08:10:31.004Z,8.50
2023-01-12T08:12:57.817Z,8.50
2023-01-12T08:15:26.473Z,8.50
2023-01-12T08:17:57.911Z,8.60
2023-01-12T08:20:36.612Z,8.60
2023-01-12T08:23:25.814Z,8.50
2023-01-12T08:25:59.281Z,8.70
2023-01-12T08:28:36.745Z,8.60
2023-01-12T08:31:04.483Z,8.70
2023-01-12T08:33:31.756Z,8.70
2023-01-12T08:35:58.807Z,8.80
2023-01-12T08:38:25.516Z,8.80
2023-01-12T08:41:10.981Z,8.90
2023-01-12T08:43:56.495Z,8.90
2023-01-12T08:46:23.150Z,8.90
2023-01-12T08:48:49.784Z,8.90
2023-01-12T08:51:16.421Z,8.90
2023-01-12T08:53:43.031Z,9.00
2023-01-12T08:56:09.773Z,9.00
2023-01-12T08:58:36.379Z,9.00
2023-01-12T09:01:10.937Z,9.10
2023-01-12T09:03:38.857Z,9.10
2023-01-12T09:06:32.142Z,9.20
2023-01-12T09:09:01.075Z,9.10
2023-01-12T09:11:29.478Z,9.20
2023-01-12T09:13:58.433Z,9.20
2023-01-12T09:16:27.241Z,9.20
2023-01-12T09:18:53.955Z,9.30
2023-01-12T09:21:21.937Z,9.30
2023-01-12T09:23:52.545Z,9.40
2023-01-12T09:26:31.396Z,9.40
2023-01-12T09:29:02.508Z,9.40
2023-01-12T09:31:30.948Z,9.50
2023-01-12T09:33:58.625Z,9.60
2023-01-12T09:36:28.004Z,9.60
2023-01-12T09:38:55.172Z,9.60
2023-01-12T09:41:53.165Z,9.60
2023-01-12T09:44:41.888Z,9.70
2023-01-12T09:47:16.898Z,9.60
2023-01-12T09:49:50.321Z,9.70
2023-01-12T09:52:26.808Z,9.70
2023-01-12T09:54:53.572Z,9.80
2023-01-12T09:57:38.706Z,9.80
2023-01-12T10:00:13.816Z,9.70
2023-01-12T10:02:46.634Z,9.80
2023-01-12T10:05:39.625Z,9.80
2023-01-12T10:08:14.647Z,9.80
2023-01-12T10:10:55.639Z,9.90
2023-01-12T10:13:25.108Z,9.90
2023-01-12T10:16:02.753Z,9.90
2023-01-12T10:18:47.297Z,9.90
2023-01-12T10:21:14.701Z,10.00
2023-01-12T10:23:42.116Z,10.00
2023-01-12T10:26:24.867Z,10.00
2023-01-12T10:28:54.893Z,10.10
2023-01-12T10:31:25.930Z,10.10
2023-01-12T10:34:04.974Z,10.10
2023-01-12T10:36:32.625Z,10.10
2023-01-12T10:39:03.361Z,10.20
2023-01-12T10:41:32.016Z,10.10
2023-01-12T10:43:58.637Z,10.10
2023-01-12T10:46:31.471Z,10.10
2023-01-12T10:49:23.211Z,10.10
2023-01-12T10:51:59.511Z,10.20
2023-01-12T10:54:31.283Z,10.60
2023-01-12T10:57:18.806Z,11.40
2023-01-12T10:59:58.112Z,12.20
2023-01-12T11:02:28.306Z,11.60
2023-01-12T11:04:55.669Z,11.30
2023-01-12T11:07:30.703Z,10.90
2023-01-12T11:10:37.349Z,10.80
2023-01-12T11:13:22.313Z,10.70
2023-01-12T11:16:07.450Z,10.70
2023-01-12T11:18:55.790Z,10.80
2023-01-12T11:21:27.590Z,10.70
2023-01-12T11:24:05.654Z,10.70
2023-01-12T11:26:47.082Z,10.60
2023-01-12T11:29:41.843Z,10.60
2023-01-12T11:32:15.601Z,10.60
2023-01-12T11:34:55.631Z,10.60
2023-01-12T11:37:22.553Z,10.60
2023-01-12T11:39:54.840Z,10.50
2023-01-12T11:42:45.990Z,10.60
2023-01-12T11:45:52.291Z,10.60
2023-01-12T11:48:57.325Z,10.60
2023-01-12T11:51:24.135Z,10.70
2023-01-12T11:53:51.130Z,10.60
2023-01-12T11:56:24.029Z,10.60
2023-01-12T11:59:02.378Z,10.70
2023-01-12T12:01:48.668Z,10.70
2023-01-12T12:04:48.575Z,10.70
2023-01-12T12:07:31.418Z,10.80
2023-01-12T12:10:22.253Z,10.70
2023-01-12T12:12:55.547Z,10.80
2023-01-12T12:15:28.339Z,10.80
2023-01-12T12:18:30.320Z,10.80
2023-01-12T12:21:17.863Z,10.80
2023-01-12T12:23:53.662Z,10.80
2023-01-12T12:26:36.898Z,10.80
2023-01-12T12:29:26.675Z,10.80
2023-01-12T12:32:05.421Z,10.80
2023-01-12T12:34:47.026Z,10.80
2023-01-12T12:37:35.685Z,10.80
2023-01-12T12:40:23.498Z,10.80
2023-01-12T12:43:34.283Z,10.90
2023-01-12T12:46:25.902Z,10.80
2023-01-12T12:49:04.949Z,10.80
2023-01-12T12:51:34.543Z,10.80
2023-01-12T12:54:06.271Z,10.80
2023-01-12T12:56:35.497Z,10.80
2023-01-12T12:59:02.376Z,10.80
2023-01-12T13:01:29.046Z,10.80
2023-01-12T13:03:57.501Z,10.70
2023-01-12T13:06:46.146Z,10.70
2023-01-12T13:09:13.954Z,10.70
2023-01-12T13:12:19.099Z,10.70
2023-01-12T13:15:20.201Z,10.70
2023-01-12T13:17:48.981Z,10.70
2023-01-12T13:20:24.871Z,11.10
2023-01-12T13:22:52.599Z,11.10
2023-01-12T13:25:23.634Z,11.00
2023-01-12T13:28:10.031Z,11.00
2023-01-12T13:30:48.614Z,10.90
2023-01-12T13:33:15.199Z,10.80
2023-01-12T13:35:44.257Z,10.80
2023-01-12T13:38:28.986Z,10.70
2023-01-12T13:41:13.735Z,10.70
2023-01-12T13:43:52.173Z,10.70
2023-01-12T13:46:24.365Z,10.70
2023-01-12T13:48:53.880Z,10.60
2023-01-12T13:51:28.981Z,10.60
2023-01-12T13:54:07.436Z,10.60
2023-01-12T13:56:34.256Z,10.70
2023-01-12T13:59:04.069Z,10.60
2023-01-12T14:01:37.698Z,10.60
2023-01-12T14:04:40.911Z,10.60
2023-01-12T14:07:30.625Z,10.60
2023-01-12T14:10:28.250Z,10.60
2023-01-12T14:13:03.718Z,10.60
2023-01-12T14:15:56.060Z,10.60
2023-01-12T14:18:25.557Z,10.60
2023-01-12T14:20:57.582Z,10.70
2023-01-12T14:23:26.948Z,10.60
2023-01-12T14:26:07.148Z,10.60
2023-01-12T14:28:35.005Z,10.50
2023-01-12T14:31:02.126Z,10.60
2023-01-12T14:33:32.435Z,10.60
2023-01-12T14:36:21.022Z,10.60
2023-01-12T14:38:48.572Z,10.60
2023-01-12T14:41:43.184Z,10.70
2023-01-12T14:44:35.590Z,10.70
2023-01-12T14:47:02.381Z,10.60
2023-01-12T14:49:31.792Z,10.60
2023-01-12T14:52:00.734Z,10.70
2023-01-12T14:54:33.384Z,10.60
2023-01-12T14:57:04.362Z,10.60
2023-01-12T14:59:37.164Z,10.60
2023-01-12T15:02:32.416Z,10.60
2023-01-12T15:05:11.282Z,10.60
2023-01-12T15:07:56.844Z,10.50
2023-01-12T15:10:32.661Z,10.40
2023-01-12T15:13:23.740Z,10.40
2023-01-12T15:16:13.964Z,10.50
2023-01-12T15:18:59.481Z,10.40
2023-01-12T15:21:46.597Z,10.40
2023-01-12T15:24:49.670Z,10.40
2023-01-12T15:27:20.455Z,10.30
2023-01-12T15:29:47.661Z,10.40
2023-01-12T15:32:22.085Z,10.30
2023-01-12T15:34:48.962Z,10.40
2023-01-12T15:37:18.295Z,10.40
2023-01-12T15:39:45.804Z,10.40
2023-01-12T15:42:17.968Z,10.40
2023-01-12T15:44:45.628Z,10.50
2023-01-12T15:47:14.228Z,10.40
2023-01-12T15:49:42.369Z,10.50
2023-01-12T15:52:18.665Z,10.50
2023-01-12T15:54:45.240Z,10.50
2023-01-12T15:57:13.765Z,10.50
2023-01-12T15:59:40.620Z,10.50
2023-01-12T16:02:33.046Z,10.40
2023-01-12T16:05:00.075Z,10.50
2023-01-12T16:07:26.824Z,10.40
2023-01-12T16:09:55.036Z,10.40
2023-01-12T16:12:22.876Z,10.50
2023-01-12T16:14:49.765Z,10.50
2023-01-12T16:17:16.658Z,10.40
2023-01-12T16:19:43.709Z,10.40
2023-01-12T16:22:21.939Z,10.50
2023-01-12T16:24:50.241Z,10.50
2023-01-12T16:27:18.253Z,10.50
2023-01-12T16:29:45.558Z,10.50
2023-01-12T16:32:12.851Z,10.50
2023-01-12T16:34:40.318Z,10.50
2023-01-12T16:37:14.717Z,10.60
2023-01-12T16:39:42.465Z,10.50
2023-01-12T16:42:09.866Z,10.50
2023-01-12T16:44:38.952Z,10.50
2023-01-12T16:47:13.866Z,10.60
2023-01-12T16:49:40.921Z,10.60
2023-01-12T16:52:10.725Z,10.50
2023-01-12T16:54:42.251Z,10.60
2023-01-12T16:57:10.210Z,10.50
2023-01-12T16:59:36.922Z,10.60
2023-01-12T17:02:08.447Z,10.60
2023-01-12T17:04:36.056Z,10.60
2023-01-12T17:07:04.304Z,10.70
2023-01-12T17:09:31.388Z,10.70
2023-01-12T17:11:59.559Z,10.70
2023-01-12T17:14:27.514Z,10.70
2023-01-12T17:17:03.232Z,10.70
2023-01-12T17:19:32.535Z,10.70
2023-01-12T17:22:01.833Z,10.70
2023-01-12T17:24:30.144Z,10.70
2023-01-12T17:26:57.613Z,10.70
2023-01-12T17:29:25.714Z,10.80
2023-01-12T17:31:53.858Z,10.70
2023-01-12T17:34:21.939Z,10.60
2023-01-12T17:36:48.872Z,10.70
2023-01-12T17:39:15.529Z,10.70
2023-01-12T17:42:01.192Z,10.70
2023-01-12T17:44:27.955Z,10.70
2023-01-12T17:46:54.635Z,10.70
2023-01-12T17:49:21.433Z,10.70
2023-01-12T17:51:48.141Z,10.70
2023-01-12T17:54:15.397Z,10.60
2023-01-12T17:56:42.205Z,10.70
2023-01-12T17:59:13.041Z,10.60
2023-01-12T18:01:41.667Z,10.70
2023-01-12T18:04:09.037Z,10.70
2023-01-12T18:06:36.696Z,10.70
2023-01-12T18:09:04.180Z,10.70
2023-01-12T18:11:31.865Z,10.70
2023-01-12T18:13:59.277Z,10.70
2023-01-12T18:16:26.385Z,10.70
2023-01-12T18:18:53.307Z,10.70
2023-01-12T18:21:25.523Z,10.70
2023-01-12T18:23:52.990Z,10.70
2023-01-12T18:26:25.057Z,10.60
2023-01-12T18:28:56.858Z,10.60
2023-01-12T18:31:26.964Z,10.50
2023-01-12T18:34:05.563Z,10.60
2023-01-12T18:36:34.946Z,10.50
2023-01-12T18:39:02.922Z,10.50
2023-01-12T18:41:48.008Z,10.50
2023-01-12T18:44:15.154Z,10.50
2023-01-12T18:47:01.800Z,10.50
2023-01-12T18:49:32.044Z,10.50
2023-01-12T18:52:18.489Z,10.50
2023-01-12T18:54:47.743Z,10.50
2023-01-12T18:57:19.312Z,10.50
2023-01-12T18:59:47.003Z,10.40
2023-01-12T19:02:14.755Z,10.50
2023-01-12T19:04:50.462Z,10.50
2023-01-12T19:07:43.501Z,10.40
2023-01-12T19:10:10.361Z,10.40
2023-01-12T19:12:36.953Z,10.40
2023-01-12T19:15:22.545Z,10.50
2023-01-12T19:17:49.210Z,10.50
2023-01-12T19:20:17.109Z,10.40
2023-01-12T19:23:02.231Z,10.40
2023-01-12T19:25:47.637Z,10.50
2023-01-12T19:28:35.067Z,10.50
2023-01-12T19:31:04.065Z,10.50
2023-01-12T19:33:30.817Z,10.50
2023-01-12T19:35:57.460Z,10.50
2023-01-12T19:38:24.165Z,10.60
2023-01-12T19:40:54.534Z,10.50
2023-01-12T19:43:26.057Z,10.60
2023-01-12T19:45:55.008Z,10.50
2023-01-12T19:48:23.836Z,10.50
2023-01-12T19:50:51.479Z,10.60
2023-01-12T19:53:21.217Z,10.60
2023-01-12T19:55:49.963Z,10.60
2023-01-12T19:58:16.889Z,10.60
2023-01-12T20:00:47.849Z,10.60
2023-01-12T20:03:17.420Z,10.50
2023-01-12T20:05:47.226Z,10.50
2023-01-12T20:08:14.995Z,10.50
2023-01-12T20:10:41.635Z,10.50
2023-01-12T20:13:10.505Z,10.40
2023-01-12T20:15:40.916Z,10.40
2023-01-12T20:18:08.809Z,10.40
2023-01-12T20:20:35.705Z,10.40
2023-01-12T20:23:02.358Z,10.40
2023-01-12T20:25:29.106Z,10.40
2023-01-12T20:27:55.745Z,10.40
2023-01-12T20:30:36.988Z,10.40
2023-01-12T20:33:05.855Z,10.40
2023-01-12T20:35:32.694Z,10.40
2023-01-12T20:37:59.329Z,10.40
2023-01-12T20:40:26.045Z,10.50
2023-01-12T20:42:52.683Z,10.40
2023-01-12T20:45:19.494Z,10.50
2023-01-12T20:47:46.122Z,10.50
2023-01-12T20:50:14.683Z,10.40
2023-01-12T20:52:41.564Z,10.50
2023-01-12T20:55:08.718Z,10.40
2023-01-12T20:57:38.585Z,10.50
2023-01-12T21:00:06.813Z,10.50
2023-01-12T21:02:33.535Z,10.50
2023-01-12T21:05:00.145Z,10.50
2023-01-12T21:07:26.823Z,10.50
2023-01-12T21:09:53.409Z,10.50
2023-01-12T21:12:20.058Z,10.50
2023-01-12T21:14:46.710Z,10.60
2023-01-12T21:17:13.386Z,10.60
2023-01-12T21:19:40.569Z,10.50
2023-01-12T21:22:07.174Z,10.50
2023-01-12T21:24:33.838Z,10.50
2023-01-12T21:27:00.530Z,10.50
2023-01-12T21:29:27.201Z,10.50
2023-01-12T21:31:53.876Z,10.50
2023-01-12T21:34:20.571Z,10.40
2023-01-12T21:36:47.227Z,10.40
2023-01-12T21:39:13.993Z,10.40
2023-01-12T21:41:59.568Z,10.40
2023-01-12T21:44:26.181Z,10.40
2023-01-12T21:46:52.897Z,10.50
2023-01-12T21:49:20.026Z,10.60
2023-01-12T21:51:46.666Z,10.50
2023-01-12T21:54:13.281Z,10.50
2023-01-12T21:56:39.879Z,10.50
2023-01-12T21:59:06.494Z,10.50
2023-01-12T22:01:33.239Z,10.50
2023-01-12T22:03:59.949Z,10.50
2023-01-12T22:06:26.766Z,10.50
2023-01-12T22:08:53.372Z,10.40
2023-01-12T22:11:20.042Z,10.40
2023-01-12T22:13:46.745Z,10.40
2023-01-12T22:16:15.232Z,10.40
2023-01-12T22:18:49.070Z,10.40
2023-01-12T22:21:16.875Z,10.40
2023-01-12T22:23:43.651Z,10.40
2023-01-12T22:26:13.065Z,10.40
2023-01-12T22:28:41.643Z,10.40
2023-01-12T22:31:12.253Z,10.40
2023-01-12T22:33:39.072Z,10.40
2023-01-12T22:36:07.037Z,10.40
2023-01-12T22:38:33.823Z,10.50
2023-01-12T22:41:08.243Z,10.40
2023-01-12T22:43:40.470Z,10.40
2023-01-12T22:46:20.551Z,10.30
2023-01-12T22:48:55.415Z,10.40
2023-01-12T22:51:24.799Z,10.50
2023-01-12T22:53:52.422Z,10.50
2023-01-12T22:56:19.590Z,10.50
2023-01-12T22:58:56.154Z,10.50
2023-01-12T23:01:25.673Z,10.40
2023-01-12T23:03:54.530Z,10.40
2023-01-12T23:06:22.626Z,10.40
2023-01-12T23:08:50.198Z,10.40
2023-01-12T23:11:22.361Z,10.50
2023-01-12T23:13:50.018Z,10.50
2023-01-12T23:16:18.309Z,10.50
2023-01-12T23:18:46.621Z,10.40
2023-01-12T23:21:15.917Z,10.30
2023-01-12T23:23:50.167Z,10.40
2023-01-12T23:26:25.436Z,10.40
2023-01-12T23:28:56.879Z,10.30
2023-01-12T23:31:25.958Z,10.30
2023-01-12T23:33:53.128Z,10.30
2023-01-12T23:36:22.344Z,10.30
2023-01-12T23:38:57.836Z,10.30
2023-01-12T23:41:26.672Z,10.30
2023-01-12T23:43:56.346Z,10.30
2023-01-12T23:46:23.996Z,10.40
2023-01-12T23:48:52.159Z,10.40
2023-01-12T23:51:19.295Z,10.40
2023-01-12T23:53:46.669Z,10.40
2023-01-12T23:56:15.400Z,10.40
2023-01-12T23:58:43.407Z,10.40
